Weather at St Pierre Airport

Public forecast

Using degrees Celsius for public forecast. Weather courtesy of forecast.io.

Current aviation weather report (METAR) for St Pierre Airport

Retrieved 2020/09/30 14:00 UTC (4 minutes ago):

LFVP 301400Z 18012KT 0350 R26/0500D FG VV/// 16/16 Q1020 NOSIG

Aviation forecast (TAF) for St Pierre Airport

Retrieved 2020/09/30 12:00 UTC (2 hours ago):

TAF LFVP 301100Z 3012/3021 18015KT 0400 FG VV/// PROB30 TEMPO 3015/3018 0800 FG BKN002